sensor_id;sensor_type;location;lat;lon;timestamp;pressure;altitude;pressure_sealevel;temperature;humidity
4981;BME280;2507;50.392;7.482;2023-01-01T00:02:09;100644.97;;;12.70;65.29
4981;BME280;2507;50.392;7.482;2023-01-01T00:04:34;100653.72;;;12.70;65.51
4981;BME280;2507;50.392;7.482;2023-01-01T00:07:00;100659.13;;;12.69;65.73
4981;BME280;2507;50.392;7.482;2023-01-01T00:09:25;100647.84;;;12.78;65.28
4981;BME280;2507;50.392;7.482;2023-01-01T00:12:09;100656.72;;;12.66;65.97
4981;BME280;2507;50.392;7.482;2023-01-01T00:14:35;100663.19;;;12.51;65.99
4981;BME280;2507;50.392;7.482;2023-01-01T00:17:00;100653.97;;;12.45;66.21
4981;BME280;2507;50.392;7.482;2023-01-01T00:19:26;100657.41;;;12.46;66.46
4981;BME280;2507;50.392;7.482;2023-01-01T00:21:51;100644.16;;;12.47;66.21
4981;BME280;2507;50.392;7.482;2023-01-01T00:24:16;100644.38;;;12.55;65.84
4981;BME280;2507;50.392;7.482;2023-01-01T00:26:42;100656.81;;;12.42;66.31
4981;BME280;2507;50.392;7.482;2023-01-01T00:29:07;100645.34;;;12.43;66.18
4981;BME280;2507;50.392;7.482;2023-01-01T00:31:33;100643.66;;;12.42;66.34
4981;BME280;2507;50.392;7.482;2023-01-01T00:33:58;100643.53;;;12.55;66.13
4981;BME280;2507;50.392;7.482;2023-01-01T00:36:25;100650.25;;;12.59;65.61
4981;BME280;2507;50.392;7.482;2023-01-01T00:38:51;100641.03;;;12.75;65.41
4981;BME280;2507;50.392;7.482;2023-01-01T00:41:17;100649.41;;;12.69;65.60
4981;BME280;2507;50.392;7.482;2023-01-01T00:43:43;100644.50;;;12.54;66.00
4981;BME280;2507;50.392;7.482;2023-01-01T00:46:08;100649.06;;;12.52;65.95
4981;BME280;2507;50.392;7.482;2023-01-01T00:48:34;100642.34;;;12.37;66.72
4981;BME280;2507;50.392;7.482;2023-01-01T00:51:00;100649.88;;;12.30;66.66
4981;BME280;2507;50.392;7.482;2023-01-01T00:53:25;100646.19;;;12.21;67.11
4981;BME280;2507;50.392;7.482;2023-01-01T00:55:51;100650.47;;;12.22;67.08
4981;BME280;2507;50.392;7.482;2023-01-01T00:58:17;100641.28;;;12.28;67.01
4981;BME280;2507;50.392;7.482;2023-01-01T01:00:43;100648.47;;;12.37;66.51
4981;BME280;2507;50.392;7.482;2023-01-01T01:03:13;100643.53;;;12.55;66.05
4981;BME280;2507;50.392;7.482;2023-01-01T01:06:13;100645.81;;;12.48;65.66
4981;BME280;2507;50.392;7.482;2023-01-01T01:08:41;100653.00;;;12.35;66.61
4981;BME280;2507;50.392;7.482;2023-01-01T01:11:09;100653.25;;;12.54;66.03
4981;BME280;2507;50.392;7.482;2023-01-01T01:13:35;100656.72;;;12.32;66.58
4981;BME280;2507;50.392;7.482;2023-01-01T01:16:06;100662.59;;;12.36;66.30
4981;BME280;2507;50.392;7.482;2023-01-01T01:18:32;100679.66;;;12.19;67.12
4981;BME280;2507;50.392;7.482;2023-01-01T01:20:57;100682.03;;;12.11;67.54
4981;BME280;2507;50.392;7.482;2023-01-01T01:23:22;100685.34;;;12.02;67.49
4981;BME280;2507;50.392;7.482;2023-01-01T01:25:48;100687.66;;;12.07;67.21
4981;BME280;2507;50.392;7.482;2023-01-01T01:28:13;100702.94;;;11.78;67.63
4981;BME280;2507;50.392;7.482;2023-01-01T01:30:39;100689.88;;;11.66;68.22
4981;BME280;2507;50.392;7.482;2023-01-01T01:33:05;100697.31;;;11.48;69.14
4981;BME280;2507;50.392;7.482;2023-01-01T01:35:30;100696.13;;;11.52;68.83
4981;BME280;2507;50.392;7.482;2023-01-01T01:37:57;100694.84;;;11.58;68.90
4981;BME280;2507;50.392;7.482;2023-01-01T01:40:22;100685.03;;;11.72;68.40
4981;BME280;2507;50.392;7.482;2023-01-01T01:42:49;100686.38;;;11.78;68.36
4981;BME280;2507;50.392;7.482;2023-01-01T01:45:15;100675.72;;;11.79;68.19
4981;BME280;2507;50.392;7.482;2023-01-01T01:47:53;100688.44;;;11.96;67.75
4981;BME280;2507;50.392;7.482;2023-01-01T01:50:33;100686.44;;;12.00;67.47
4981;BME280;2507;50.392;7.482;2023-01-01T01:53:07;100689.56;;;12.05;67.80
4981;BME280;2507;50.392;7.482;2023-01-01T01:55:38;100688.38;;;12.31;66.78
4981;BME280;2507;50.392;7.482;2023-01-01T01:58:06;100685.56;;;12.67;65.46
4981;BME280;2507;50.392;7.482;2023-01-01T02:00:33;100691.53;;;12.58;65.59
4981;BME280;2507;50.392;7.482;2023-01-01T02:03:04;100693.22;;;12.70;64.87
4981;BME280;2507;50.392;7.482;2023-01-01T02:05:31;100687.81;;;12.61;65.47
4981;BME280;2507;50.392;7.482;2023-01-01T02:07:58;100710.91;;;12.57;65.28
4981;BME280;2507;50.392;7.482;2023-01-01T02:10:26;100698.72;;;12.45;65.99
4981;BME280;2507;50.392;7.482;2023-01-01T02:12:52;100693.94;;;12.61;65.99
4981;BME280;2507;50.392;7.482;2023-01-01T02:15:17;100709.94;;;12.36;66.41
4981;BME280;2507;50.392;7.482;2023-01-01T02:17:44;100694.38;;;12.44;66.30
4981;BME280;2507;50.392;7.482;2023-01-01T02:20:28;100695.72;;;12.61;65.49
4981;BME280;2507;50.392;7.482;2023-01-01T02:23:25;100697.03;;;12.55;65.79
4981;BME280;2507;50.392;7.482;2023-01-01T02:26:07;100694.28;;;12.57;65.78
4981;BME280;2507;50.392;7.482;2023-01-01T02:31:22;100701.09;;;12.37;65.86
4981;BME280;2507;50.392;7.482;2023-01-01T02:33:49;100702.75;;;12.49;65.76
4981;BME280;2507;50.392;7.482;2023-01-01T02:36:17;100701.34;;;12.34;65.85
4981;BME280;2507;50.392;7.482;2023-01-01T02:38:45;100695.34;;;12.32;66.04
4981;BME280;2507;50.392;7.482;2023-01-01T02:41:40;100701.84;;;12.61;66.25
4981;BME280;2507;50.392;7.482;2023-01-01T02:44:10;100711.16;;;13.09;64.93
4981;BME280;2507;50.392;7.482;2023-01-01T02:46:35;100691.25;;;13.27;64.34
4981;BME280;2507;50.392;7.482;2023-01-01T02:49:01;100701.81;;;13.70;63.20
4981;BME280;2507;50.392;7.482;2023-01-01T02:54:31;100706.38;;;14.41;61.12
4981;BME280;2507;50.392;7.482;2023-01-01T02:57:14;100703.09;;;14.58;60.70
4981;BME280;2507;50.392;7.482;2023-01-01T03:00:00;100707.78;;;14.75;59.99
4981;BME280;2507;50.392;7.482;2023-01-01T03:05:28;100706.38;;;15.01;59.37
4981;BME280;2507;50.392;7.482;2023-01-01T03:08:09;100712.38;;;15.03;59.32
4981;BME280;2507;50.392;7.482;2023-01-01T03:13:14;100707.38;;;15.10;59.25
4981;BME280;2507;50.392;7.482;2023-01-01T03:15:54;100712.13;;;15.16;58.73
4981;BME280;2507;50.392;7.482;2023-01-01T03:18:29;100704.63;;;15.21;58.59
4981;BME280;2507;50.392;7.482;2023-01-01T03:20:58;100708.06;;;15.12;59.08
4981;BME280;2507;50.392;7.482;2023-01-01T03:23:32;100702.50;;;15.05;59.03
4981;BME280;2507;50.392;7.482;2023-01-01T03:26:04;100718.25;;;14.86;59.36
4981;BME280;2507;50.392;7.482;2023-01-01T03:28:35;100719.13;;;14.87;59.67
4981;BME280;2507;50.392;7.482;2023-01-01T03:31:03;100716.00;;;14.82;59.72
4981;BME280;2507;50.392;7.482;2023-01-01T03:33:33;100716.59;;;14.85;59.49
4981;BME280;2507;50.392;7.482;2023-01-01T03:36:11;100721.34;;;14.91;59.59
4981;BME280;2507;50.392;7.482;2023-01-01T03:38:51;100719.81;;;14.89;59.31
4981;BME280;2507;50.392;7.482;2023-01-01T03:41:26;100725.44;;;15.05;59.05
4981;BME280;2507;50.392;7.482;2023-01-01T03:46:29;100731.25;;;14.99;59.10
4981;BME280;2507;50.392;7.482;2023-01-01T03:48:56;100724.88;;;15.01;58.59
4981;BME280;2507;50.392;7.482;2023-01-01T03:51:36;100707.78;;;15.05;58.77
4981;BME280;2507;50.392;7.482;2023-01-01T03:54:09;100718.34;;;15.15;58.63
4981;BME280;2507;50.392;7.482;2023-01-01T03:56:46;100702.50;;;15.15;58.59
4981;BME280;2507;50.392;7.482;2023-01-01T04:02:16;100728.59;;;14.99;59.09
4981;BME280;2507;50.392;7.482;2023-01-01T04:04:43;100728.56;;;14.89;59.74
4981;BME280;2507;50.392;7.482;2023-01-01T04:07:09;100724.03;;;15.01;59.60
4981;BME280;2507;50.392;7.482;2023-01-01T04:09:35;100731.72;;;15.13;59.07
4981;BME280;2507;50.392;7.482;2023-01-01T04:12:04;100732.28;;;15.17;58.65
4981;BME280;2507;50.392;7.482;2023-01-01T04:14:38;100732.88;;;15.30;58.52
4981;BME280;2507;50.392;7.482;2023-01-01T04:17:06;100733.41;;;15.14;58.93
4981;BME280;2507;50.392;7.482;2023-01-01T04:19:32;100731.09;;;15.30;58.66
4981;BME280;2507;50.392;7.482;2023-01-01T04:21:57;100734.28;;;15.34;58.36
4981;BME280;2507;50.392;7.482;2023-01-01T04:24:23;100731.47;;;15.26;58.74
4981;BME280;2507;50.392;7.482;2023-01-01T04:26:52;100727.03;;;15.26;58.70
4981;BME280;2507;50.392;7.482;2023-01-01T04:29:18;100733.72;;;15.30;58.42
4981;BME280;2507;50.392;7.482;2023-01-01T04:31:43;100728.69;;;15.27;58.46
4981;BME280;2507;50.392;7.482;2023-01-01T04:34:09;100729.53;;;15.28;58.62
4981;BME280;2507;50.392;7.482;2023-01-01T04:36:34;100736.28;;;15.42;57.82
4981;BME280;2507;50.392;7.482;2023-01-01T04:39:00;100738.34;;;15.38;58.27
4981;BME280;2507;50.392;7.482;2023-01-01T04:41:25;100740.34;;;15.55;57.76
4981;BME280;2507;50.392;7.482;2023-01-01T04:43:50;100741.53;;;15.32;58.05
4981;BME280;2507;50.392;7.482;2023-01-01T04:46:17;100738.97;;;15.21;58.43
4981;BME280;2507;50.392;7.482;2023-01-01T04:48:43;100734.53;;;15.21;58.53
4981;BME280;2507;50.392;7.482;2023-01-01T04:51:10;100728.25;;;15.22;58.80
4981;BME280;2507;50.392;7.482;2023-01-01T04:53:35;100731.06;;;15.21;58.42
4981;BME280;2507;50.392;7.482;2023-01-01T04:56:04;100728.69;;;15.27;57.99
4981;BME280;2507;50.392;7.482;2023-01-01T04:58:30;100732.59;;;15.23;57.87
4981;BME280;2507;50.392;7.482;2023-01-01T05:00:56;100745.53;;;15.26;57.78
4981;BME280;2507;50.392;7.482;2023-01-01T05:03:21;100750.41;;;15.21;57.76
4981;BME280;2507;50.392;7.482;2023-01-01T05:05:46;100752.91;;;15.23;57.44
4981;BME280;2507;50.392;7.482;2023-01-01T05:08:14;100739.59;;;15.34;57.16
4981;BME280;2507;50.392;7.482;2023-01-01T05:10:39;100750.91;;;15.46;56.58
4981;BME280;2507;50.392;7.482;2023-01-01T05:13:07;100749.88;;;15.37;56.93
4981;BME280;2507;50.392;7.482;2023-01-01T05:15:36;100759.00;;;15.54;56.97
4981;BME280;2507;50.392;7.482;2023-01-01T05:18:02;100751.34;;;15.51;56.77
4981;BME280;2507;50.392;7.482;2023-01-01T05:20:27;100760.00;;;15.53;56.57
4981;BME280;2507;50.392;7.482;2023-01-01T05:22:52;100776.00;;;15.61;56.49
4981;BME280;2507;50.392;7.482;2023-01-01T05:25:17;100765.00;;;15.75;56.47
4981;BME280;2507;50.392;7.482;2023-01-01T05:27:43;100772.28;;;15.92;55.65
4981;BME280;2507;50.392;7.482;2023-01-01T05:30:08;100781.88;;;15.74;55.95
4981;BME280;2507;50.392;7.482;2023-01-01T05:32:35;100766.97;;;15.63;56.22
4981;BME280;2507;50.392;7.482;2023-01-01T05:35:01;100775.31;;;15.68;55.96
4981;BME280;2507;50.392;7.482;2023-01-01T05:37:26;100764.75;;;15.78;56.03
4981;BME280;2507;50.392;7.482;2023-01-01T05:39:52;100774.25;;;15.99;55.03
4981;BME280;2507;50.392;7.482;2023-01-01T05:42:17;100772.84;;;15.95;55.02
4981;BME280;2507;50.392;7.482;2023-01-01T05:44:43;100778.13;;;15.86;55.61
4981;BME280;2507;50.392;7.482;2023-01-01T05:47:08;100777.56;;;15.82;55.46
4981;BME280;2507;50.392;7.482;2023-01-01T05:49:33;100785.47;;;15.73;55.87
4981;BME280;2507;50.392;7.482;2023-01-01T05:52:00;100783.41;;;15.67;55.83
4981;BME280;2507;50.392;7.482;2023-01-01T05:54:25;100790.91;;;15.62;56.18
4981;BME280;2507;50.392;7.482;2023-01-01T05:56:51;100790.91;;;15.62;56.26
4981;BME280;2507;50.392;7.482;2023-01-01T05:59:16;100793.97;;;15.67;56.03
4981;BME280;2507;50.392;7.482;2023-01-01T06:01:42;100788.72;;;15.76;55.60
4981;BME280;2507;50.392;7.482;2023-01-01T06:04:07;100781.59;;;15.77;55.61
4981;BME280;2507;50.392;7.482;2023-01-01T06:06:33;100788.72;;;15.86;55.52
4981;BME280;2507;50.392;7.482;2023-01-01T06:09:02;100797.78;;;15.83;55.82
4981;BME280;2507;50.392;7.482;2023-01-01T06:11:28;100800.13;;;15.86;55.53
4981;BME280;2507;50.392;7.482;2023-01-01T06:13:56;100803.22;;;16.10;55.03
4981;BME280;2507;50.392;7.482;2023-01-01T06:16:22;100815.75;;;15.99;55.29
4981;BME280;2507;50.392;7.482;2023-01-01T06:18:48;100820.06;;;15.90;55.26
4981;BME280;2507;50.392;7.482;2023-01-01T06:21:18;100809.91;;;15.95;55.33
4981;BME280;2507;50.392;7.482;2023-01-01T06:23:44;100823.44;;;16.11;55.22
4981;BME280;2507;50.392;7.482;2023-01-01T06:26:12;100822.44;;;16.22;54.79
4981;BME280;2507;50.392;7.482;2023-01-01T06:28:38;100833.88;;;16.22;55.10
4981;BME280;2507;50.392;7.482;2023-01-01T06:31:06;100829.44;;;16.32;54.46
4981;BME280;2507;50.392;7.482;2023-01-01T06:33:32;100844.47;;;16.13;55.09
4981;BME280;2507;50.392;7.482;2023-01-01T06:35:58;100847.00;;;16.14;55.10
4981;BME280;2507;50.392;7.482;2023-01-01T06:38:23;100840.16;;;16.31;54.43
4981;BME280;2507;50.392;7.482;2023-01-01T06:41:19;100839.91;;;16.34;54.52
4981;BME280;2507;50.392;7.482;2023-01-01T06:43:45;100836.00;;;16.48;54.46
4981;BME280;2507;50.392;7.482;2023-01-01T06:46:23;100841.16;;;16.40;54.59
4981;BME280;2507;50.392;7.482;2023-01-01T06:48:50;100837.25;;;16.24;54.44
4981;BME280;2507;50.392;7.482;2023-01-01T06:51:18;100839.19;;;16.22;54.75
4981;BME280;2507;50.392;7.482;2023-01-01T06:53:45;100843.34;;;16.34;54.47
4981;BME280;2507;50.392;7.482;2023-01-01T06:56:10;100848.38;;;16.28;54.88
4981;BME280;2507;50.392;7.482;2023-01-01T06:58:36;100855.38;;;16.29;54.55
4981;BME280;2507;50.392;7.482;2023-01-01T07:01:23;100871.94;;;16.31;54.70
4981;BME280;2507;50.392;7.482;2023-01-01T07:03:57;100874.44;;;16.42;54.31
4981;BME280;2507;50.392;7.482;2023-01-01T07:06:23;100851.59;;;16.41;54.34
4981;BME280;2507;50.392;7.482;2023-01-01T07:08:49;100875.47;;;16.60;53.98
4981;BME280;2507;50.392;7.482;2023-01-01T07:11:14;100874.50;;;16.52;54.31
4981;BME280;2507;50.392;7.482;2023-01-01T07:13:40;100875.44;;;16.41;54.38
4981;BME280;2507;50.392;7.482;2023-01-01T07:16:06;100882.28;;;16.34;54.55
4981;BME280;2507;50.392;7.482;2023-01-01T07:18:32;100874.31;;;16.34;54.99
4981;BME280;2507;50.392;7.482;2023-01-01T07:20:59;100871.09;;;16.40;54.42
4981;BME280;2507;50.392;7.482;2023-01-01T07:23:26;100887.00;;;16.40;54.43
4981;BME280;2507;50.392;7.482;2023-01-01T07:25:53;100874.06;;;16.47;54.22
4981;BME280;2507;50.392;7.482;2023-01-01T07:28:19;100880.34;;;16.55;54.28
4981;BME280;2507;50.392;7.482;2023-01-01T07:30:45;100877.59;;;16.47;54.20
4981;BME280;2507;50.392;7.482;2023-01-01T07:33:12;100876.59;;;16.48;54.20
4981;BME280;2507;50.392;7.482;2023-01-01T07:35:38;100884.53;;;16.48;54.41
4981;BME280;2507;50.392;7.482;2023-01-01T07:38:04;100880.63;;;16.52;54.19
4981;BME280;2507;50.392;7.482;2023-01-01T07:40:29;100891.59;;;16.28;54.67
4981;BME280;2507;50.392;7.482;2023-01-01T07:42:54;100899.69;;;16.36;54.82
4981;BME280;2507;50.392;7.482;2023-01-01T07:45:20;100901.06;;;16.31;55.03
4981;BME280;2507;50.392;7.482;2023-01-01T07:47:49;100899.28;;;16.41;54.48
4981;BME280;2507;50.392;7.482;2023-01-01T07:50:16;100894.13;;;16.30;55.20
4981;BME280;2507;50.392;7.482;2023-01-01T07:52:42;100882.28;;;16.34;55.08
4981;BME280;2507;50.392;7.482;2023-01-01T07:55:14;100900.53;;;16.37;54.92
4981;BME280;2507;50.392;7.482;2023-01-01T07:57:40;100902.91;;;16.30;55.10
4981;BME280;2507;50.392;7.482;2023-01-01T08:00:07;100906.94;;;16.34;55.10
4981;BME280;2507;50.392;7.482;2023-01-01T08:02:33;100915.59;;;16.46;54.76
4981;BME280;2507;50.392;7.482;2023-01-01T08:04:58;100920.25;;;16.54;54.44
4981;BME280;2507;50.392;7.482;2023-01-01T08:07:23;100922.63;;;16.47;54.86
4981;BME280;2507;50.392;7.482;2023-01-01T08:09:48;100923.72;;;16.64;54.33
4981;BME280;2507;50.392;7.482;2023-01-01T08:12:14;100937.13;;;16.53;54.48
4981;BME280;2507;50.392;7.482;2023-01-01T08:14:39;100940.19;;;16.58;54.75
4981;BME280;2507;50.392;7.482;2023-01-01T08:17:04;100946.59;;;16.55;54.80
4981;BME280;2507;50.392;7.482;2023-01-01T08:19:30;100947.13;;;16.49;55.11
4981;BME280;2507;50.392;7.482;2023-01-01T08:21:55;100948.69;;;16.61;54.73
4981;BME280;2507;50.392;7.482;2023-01-01T08:24:20;100954.84;;;16.62;54.52
4981;BME280;2507;50.392;7.482;2023-01-01T08:26:48;100961.69;;;16.83;54.01
4981;BME280;2507;50.392;7.482;2023-01-01T08:29:14;100963.88;;;16.78;54.29
4981;BME280;2507;50.392;7.482;2023-01-01T08:31:40;100972.00;;;16.77;54.43
4981;BME280;2507;50.392;7.482;2023-01-01T08:34:05;100979.50;;;16.62;54.89
4981;BME280;2507;50.392;7.482;2023-01-01T08:36:31;100973.38;;;16.52;55.16
4981;BME280;2507;50.392;7.482;2023-01-01T08:38:56;100969.44;;;16.47;55.18
4981;BME280;2507;50.392;7.482;2023-01-01T08:41:22;100965.28;;;16.54;55.04
4981;BME280;2507;50.392;7.482;2023-01-01T08:43:47;100968.59;;;16.46;55.39
4981;BME280;2507;50.392;7.482;2023-01-01T08:46:12;100981.31;;;16.52;55.14
4981;BME280;2507;50.392;7.482;2023-01-01T08:48:38;100972.56;;;16.61;55.09
4981;BME280;2507;50.392;7.482;2023-01-01T08:51:03;100972.97;;;16.66;54.89
4981;BME280;2507;50.392;7.482;2023-01-01T08:53:29;100975.91;;;16.82;54.54
4981;BME280;2507;50.392;7.482;2023-01-01T08:55:57;100972.84;;;16.77;54.61
4981;BME280;2507;50.392;7.482;2023-01-01T08:58:22;100985.94;;;16.69;55.06
4981;BME280;2507;50.392;7.482;2023-01-01T09:00:47;100974.66;;;16.86;54.13
4981;BME280;2507;50.392;7.482;2023-01-01T09:03:13;100974.94;;;16.74;54.94
4981;BME280;2507;50.392;7.482;2023-01-01T09:05:38;100986.75;;;16.60;54.97
4981;BME280;2507;50.392;7.482;2023-01-01T09:08:03;100973.50;;;16.60;55.47
4981;BME280;2507;50.392;7.482;2023-01-01T09:10:29;100964.16;;;16.66;55.35
4981;BME280;2507;50.392;7.482;2023-01-01T09:12:54;100977.59;;;16.83;54.52
4981;BME280;2507;50.392;7.482;2023-01-01T09:15:19;100983.00;;;16.82;54.38
4981;BME280;2507;50.392;7.482;2023-01-01T09:17:45;100987.09;;;16.76;54.49
4981;BME280;2507;50.392;7.482;2023-01-01T09:20:10;101000.34;;;16.76;54.65
4981;BME280;2507;50.392;7.482;2023-01-01T09:22:36;101001.00;;;16.78;54.99
4981;BME280;2507;50.392;7.482;2023-01-01T09:25:01;101016.25;;;16.76;54.82
4981;BME280;2507;50.392;7.482;2023-01-01T09:27:26;101009.13;;;16.86;55.21
4981;BME280;2507;50.392;7.482;2023-01-01T09:29:52;101002.72;;;16.89;54.60
4981;BME280;2507;50.392;7.482;2023-01-01T09:32:17;101006.31;;;16.88;54.97
4981;BME280;2507;50.392;7.482;2023-01-01T09:34:43;101007.31;;;16.87;54.94
4981;BME280;2507;50.392;7.482;2023-01-01T09:37:08;101005.34;;;16.98;54.27
4981;BME280;2507;50.392;7.482;2023-01-01T09:39:33;101015.53;;;16.93;54.62
4981;BME280;2507;50.392;7.482;2023-01-01T09:44:41;101016.06;;;16.87;55.00
4981;BME280;2507;50.392;7.482;2023-01-01T09:47:21;101026.25;;;16.82;55.49
4981;BME280;2507;50.392;7.482;2023-01-01T09:49:51;101031.44;;;16.84;55.11
4981;BME280;2507;50.392;7.482;2023-01-01T09:52:19;101017.47;;;16.82;55.46
4981;BME280;2507;50.392;7.482;2023-01-01T09:54:50;101028.94;;;17.11;54.63
4981;BME280;2507;50.392;7.482;2023-01-01T09:57:25;101025.31;;;17.12;54.45
4981;BME280;2507;50.392;7.482;2023-01-01T09:59:52;101032.41;;;17.11;55.01
4981;BME280;2507;50.392;7.482;2023-01-01T10:02:46;101031.47;;;17.12;54.68
4981;BME280;2507;50.392;7.482;2023-01-01T10:08:05;101038.44;;;16.94;55.01
4981;BME280;2507;50.392;7.482;2023-01-01T10:10:39;101037.28;;;16.87;55.47
4981;BME280;2507;50.392;7.482;2023-01-01T10:13:27;101034.50;;;16.98;55.13
4981;BME280;2507;50.392;7.482;2023-01-01T10:16:02;101053.34;;;16.86;55.79
4981;BME280;2507;50.392;7.482;2023-01-01T10:18:33;101044.00;;;16.91;55.46
4981;BME280;2507;50.392;7.482;2023-01-01T10:23:40;101039.50;;;16.73;55.70
4981;BME280;2507;50.392;7.482;2023-01-01T10:26:14;101021.97;;;16.81;55.67
4981;BME280;2507;50.392;7.482;2023-01-01T10:28:50;101013.31;;;16.79;55.92
4981;BME280;2507;50.392;7.482;2023-01-01T10:31:30;101018.31;;;16.82;55.55
4981;BME280;2507;50.392;7.482;2023-01-01T10:33:56;101015.53;;;16.84;55.80
4981;BME280;2507;50.392;7.482;2023-01-01T10:36:22;101020.41;;;17.07;54.84
4981;BME280;2507;50.392;7.482;2023-01-01T10:38:48;101017.22;;;17.23;54.80
4981;BME280;2507;50.392;7.482;2023-01-01T10:41:14;101010.66;;;17.27;54.54
4981;BME280;2507;50.392;7.482;2023-01-01T10:43:41;101015.66;;;17.11;54.66
4981;BME280;2507;50.392;7.482;2023-01-01T10:46:10;101016.81;;;17.18;54.80
4981;BME280;2507;50.392;7.482;2023-01-01T10:48:36;101011.06;;;16.94;55.52
4981;BME280;2507;50.392;7.482;2023-01-01T10:51:06;101028.50;;;17.06;55.28
4981;BME280;2507;50.392;7.482;2023-01-01T10:53:40;101012.75;;;17.04;55.05
4981;BME280;2507;50.392;7.482;2023-01-01T10:56:23;101009.69;;;16.99;55.20
4981;BME280;2507;50.392;7.482;2023-01-01T10:58:53;100999.94;;;17.00;55.38
4981;BME280;2507;50.392;7.482;2023-01-01T11:01:24;100994.03;;;16.96;55.51
4981;BME280;2507;50.392;7.482;2023-01-01T11:04:01;100988.47;;;16.99;55.07
4981;BME280;2507;50.392;7.482;2023-01-01T11:06:31;101006.47;;;17.05;55.18
4981;BME280;2507;50.392;7.482;2023-01-01T11:08:59;100992.09;;;17.17;54.75
4981;BME280;2507;50.392;7.482;2023-01-01T11:11:37;100994.03;;;17.15;54.45
4981;BME280;2507;50.392;7.482;2023-01-01T11:14:17;100991.53;;;17.14;54.97
4981;BME280;2507;50.392;7.482;2023-01-01T11:16:45;100978.69;;;17.19;54.87
4981;BME280;2507;50.392;7.482;2023-01-01T11:19:19;100989.28;;;17.19;54.82
4981;BME280;2507;50.392;7.482;2023-01-01T11:21:46;100982.84;;;17.31;54.31
4981;BME280;2507;50.392;7.482;2023-01-01T11:24:23;100981.31;;;17.28;54.03
4981;BME280;2507;50.392;7.482;2023-01-01T11:26:50;100991.78;;;17.20;54.25
4981;BME280;2507;50.392;7.482;2023-01-01T11:29:27;100986.34;;;17.22;54.56
4981;BME280;2507;50.392;7.482;2023-01-01T11:31:54;100992.34;;;17.33;54.10
4981;BME280;2507;50.392;7.482;2023-01-01T11:34:30;100985.22;;;17.44;53.77
4981;BME280;2507;50.392;7.482;2023-01-01T11:39:33;101002.41;;;17.40;53.85
4981;BME280;2507;50.392;7.482;2023-01-01T11:42:01;101004.34;;;17.38;53.62
4981;BME280;2507;50.392;7.482;2023-01-01T11:44:36;100996.25;;;17.49;53.50
4981;BME280;2507;50.392;7.482;2023-01-01T11:47:05;100989.69;;;17.43;53.78
4981;BME280;2507;50.392;7.482;2023-01-01T11:49:31;100989.81;;;17.51;53.85
4981;BME280;2507;50.392;7.482;2023-01-01T11:51:57;100994.56;;;17.57;53.82
4981;BME280;2507;50.392;7.482;2023-01-01T11:54:31;101003.75;;;17.72;52.69
4981;BME280;2507;50.392;7.482;2023-01-01T11:57:16;101012.41;;;17.74;53.28
4981;BME280;2507;50.392;7.482;2023-01-01T11:59:49;101016.78;;;17.56;53.50
4981;BME280;2507;50.392;7.482;2023-01-01T12:02:29;101010.34;;;17.59;53.08
4981;BME280;2507;50.392;7.482;2023-01-01T12:05:17;101013.41;;;17.45;53.86
4981;BME280;2507;50.392;7.482;2023-01-01T12:07:45;101014.97;;;17.38;54.38
4981;BME280;2507;50.392;7.482;2023-01-01T12:10:26;101009.25;;;17.23;54.38
4981;BME280;2507;50.392;7.482;2023-01-01T12:13:02;101023.22;;;17.25;54.34
4981;BME280;2507;50.392;7.482;2023-01-01T12:15:39;101010.50;;;17.28;54.40
4981;BME280;2507;50.392;7.482;2023-01-01T12:20:49;101004.09;;;17.21;54.77
4981;BME280;2507;50.392;7.482;2023-01-01T12:23:17;100997.94;;;17.21;55.31
4981;BME280;2507;50.392;7.482;2023-01-01T12:25:48;101004.91;;;17.22;55.05
4981;BME280;2507;50.392;7.482;2023-01-01T12:33:46;100996.66;;;17.44;54.09
4981;BME280;2507;50.392;7.482;2023-01-01T12:42:33;101000.00;;;17.46;54.58
4981;BME280;2507;50.392;7.482;2023-01-01T12:48:13;100990.34;;;17.64;53.81
4981;BME280;2507;50.392;7.482;2023-01-01T12:50:59;100992.06;;;17.56;54.36
4981;BME280;2507;50.392;7.482;2023-01-01T12:58:37;100984.78;;;17.58;54.67
4981;BME280;2507;50.392;7.482;2023-01-01T13:01:10;100982.53;;;17.63;54.03
4981;BME280;2507;50.392;7.482;2023-01-01T13:03:47;100983.31;;;17.73;53.62
4981;BME280;2507;50.392;7.482;2023-01-01T13:06:17;100983.06;;;17.76;54.05
4981;BME280;2507;50.392;7.482;2023-01-01T13:08:48;100978.75;;;17.65;54.10
4981;BME280;2507;50.392;7.482;2023-01-01T13:11:16;100973.13;;;17.78;53.81
4981;BME280;2507;50.392;7.482;2023-01-01T13:13:42;100967.91;;;17.86;54.00
4981;BME280;2507;50.392;7.482;2023-01-01T13:16:10;100972.06;;;17.98;53.60
4981;BME280;2507;50.392;7.482;2023-01-01T13:18:37;100954.63;;;18.13;52.99
4981;BME280;2507;50.392;7.482;2023-01-01T13:23:42;100960.78;;;18.13;53.06
4981;BME280;2507;50.392;7.482;2023-01-01T13:39:53;100944.19;;;17.75;53.51
4981;BME280;2507;50.392;7.482;2023-01-01T13:42:45;100942.84;;;17.71;53.67
4981;BME280;2507;50.392;7.482;2023-01-01T13:45:25;100947.59;;;17.67;53.84
4981;BME280;2507;50.392;7.482;2023-01-01T13:48:16;100948.09;;;17.80;53.70
4981;BME280;2507;50.392;7.482;2023-01-01T13:56:24;100940.91;;;17.63;53.80
4981;BME280;2507;50.392;7.482;2023-01-01T14:01:55;100951.22;;;17.66;53.88
4981;BME280;2507;50.392;7.482;2023-01-01T14:04:29;100952.06;;;17.67;53.43
4981;BME280;2507;50.392;7.482;2023-01-01T14:06:59;100957.53;;;17.65;53.50
4981;BME280;2507;50.392;7.482;2023-01-01T14:09:25;100956.41;;;17.58;54.06
4981;BME280;2507;50.392;7.482;2023-01-01T14:11:51;100951.97;;;17.40;54.09
4981;BME280;2507;50.392;7.482;2023-01-01T14:14:23;100946.53;;;17.41;54.23
4981;BME280;2507;50.392;7.482;2023-01-01T14:16:57;100947.00;;;17.17;54.64
4981;BME280;2507;50.392;7.482;2023-01-01T14:19:25;100950.34;;;17.19;54.47
4981;BME280;2507;50.392;7.482;2023-01-01T14:21:52;100949.09;;;17.23;54.57
4981;BME280;2507;50.392;7.482;2023-01-01T14:24:20;100954.41;;;17.14;54.48
4981;BME280;2507;50.392;7.482;2023-01-01T14:26:47;100955.25;;;17.14;54.48
4981;BME280;2507;50.392;7.482;2023-01-01T14:29:21;100955.91;;;17.16;54.71
4981;BME280;2507;50.392;7.482;2023-01-01T14:31:50;100959.13;;;17.20;54.53
4981;BME280;2507;50.392;7.482;2023-01-01T14:34:30;100953.94;;;17.38;54.08
4981;BME280;2507;50.392;7.482;2023-01-01T14:36:59;100956.19;;;17.32;54.18